<?xml version="1.0" encoding="UTF-8" standalone="no" ?>
<gpx xmlns="http://www.topografix.com/GPX/1/1" xmlns:xsi="http://www.w3.org/2001/XMLSchema-instance" xsi:schemaLocation="http://www.topografix.com/GPX/1/1 http://www.topografix.com/GPX/1/1/gpx.xsd" version="1.1" creator="VisuGPX - https://www.visugpx.com">
  <metadata>
    <name>Maulevrier_LacVerdon2Provinces</name>
    <desc><![CDATA[gnerando idor:13126070_13136699_13136719]]></desc>
  </metadata>
  <trk>
    <name><![CDATA[Maulévrier_2ProvincesSTBarth_23km-13136719]]></name>
    <extensions>
      <line xmlns="http://www.topografix.com/GPX/gpx_style/0/2">
        <color>0000FF</color>
        <width>4</width>
      </line>
    </extensions>
    <trkseg>
      <trkpt lat="47.00205" lon="-0.76985">
        <ele>108</ele>
        <time>2023-11-05T12:41:55Z</time>
      </trkpt>
      <trkpt lat="47.00254" lon="-0.76927">
        <ele>108</ele>
        <time>2023-11-05T12:43:19Z</time>
      </trkpt>
      <trkpt lat="47.00357" lon="-0.77418">
        <ele>105</ele>
        <time>2023-11-05T12:51:07Z</time>
      </trkpt>
      <trkpt lat="47.00249" lon="-0.77707">
        <ele>105</ele>
        <time>2023-11-05T12:56:06Z</time>
      </trkpt>
      <trkpt lat="47.00254" lon="-0.77865">
        <ele>104</ele>
        <time>2023-11-05T12:58:30Z</time>
      </trkpt>
      <trkpt lat="47.00166" lon="-0.77937">
        <ele>107</ele>
        <time>2023-11-05T13:00:45Z</time>
      </trkpt>
      <trkpt lat="47.00136" lon="-0.78053">
        <ele>107</ele>
        <time>2023-11-05T13:02:38Z</time>
      </trkpt>
      <trkpt lat="47.00106" lon="-0.78262">
        <ele>111</ele>
        <time>2023-11-05T13:05:52Z</time>
      </trkpt>
      <trkpt lat="47.00185" lon="-0.78407">
        <ele>106</ele>
        <time>2023-11-05T13:08:41Z</time>
      </trkpt>
      <trkpt lat="47.00333" lon="-0.7863">
        <ele>104</ele>
        <time>2023-11-05T13:13:24Z</time>
      </trkpt>
      <trkpt lat="47.00377" lon="-0.78854">
        <ele>105</ele>
        <time>2023-11-05T13:16:56Z</time>
      </trkpt>
      <trkpt lat="47.00343" lon="-0.78933">
        <ele>106</ele>
        <time>2023-11-05T13:18:21Z</time>
      </trkpt>
      <trkpt lat="47.00234" lon="-0.78933">
        <ele>108</ele>
        <time>2023-11-05T13:20:47Z</time>
      </trkpt>
      <trkpt lat="47.00289" lon="-0.79078">
        <ele>108</ele>
        <time>2023-11-05T13:23:18Z</time>
      </trkpt>
      <trkpt lat="47.00436" lon="-0.78977">
        <ele>106</ele>
        <time>2023-11-05T13:26:54Z</time>
      </trkpt>
      <trkpt lat="47.00549" lon="-0.79027">
        <ele>105</ele>
        <time>2023-11-05T13:29:32Z</time>
      </trkpt>
      <trkpt lat="47.00668" lon="-0.79121">
        <ele>103</ele>
        <time>2023-11-05T13:32:32Z</time>
      </trkpt>
      <trkpt lat="47.00702" lon="-0.79302">
        <ele>103</ele>
        <time>2023-11-05T13:35:23Z</time>
      </trkpt>
      <trkpt lat="47.00584" lon="-0.79468">
        <ele>107</ele>
        <time>2023-11-05T13:39:01Z</time>
      </trkpt>
      <trkpt lat="47.00702" lon="-0.79533">
        <ele>103</ele>
        <time>2023-11-05T13:41:50Z</time>
      </trkpt>
      <trkpt lat="47.00672" lon="-0.79648">
        <ele>106</ele>
        <time>2023-11-05T13:43:42Z</time>
      </trkpt>
      <trkpt lat="47.00791" lon="-0.80009">
        <ele>103</ele>
        <time>2023-11-05T13:49:47Z</time>
      </trkpt>
      <trkpt lat="47.00643" lon="-0.8016">
        <ele>105</ele>
        <time>2023-11-05T13:53:47Z</time>
      </trkpt>
      <trkpt lat="47.0049" lon="-0.80428">
        <ele>104</ele>
        <time>2023-11-05T13:59:05Z</time>
      </trkpt>
      <trkpt lat="47.00323" lon="-0.80449">
        <ele>108</ele>
        <time>2023-11-05T14:02:49Z</time>
      </trkpt>
      <trkpt lat="47.00264" lon="-0.80709">
        <ele>106</ele>
        <time>2023-11-05T14:06:58Z</time>
      </trkpt>
      <trkpt lat="47.0022" lon="-0.81452">
        <ele>122</ele>
        <time>2023-11-05T14:18:17Z</time>
      </trkpt>
      <trkpt lat="47.00106" lon="-0.81452">
        <ele>125</ele>
        <time>2023-11-05T14:20:49Z</time>
      </trkpt>
      <trkpt lat="46.99777" lon="-0.81806">
        <ele>132</ele>
        <time>2023-11-05T14:29:54Z</time>
      </trkpt>
      <trkpt lat="46.99442" lon="-0.81149">
        <ele>114</ele>
        <time>2023-11-05T14:42:20Z</time>
      </trkpt>
      <trkpt lat="46.99009" lon="-0.80738">
        <ele>136</ele>
        <time>2023-11-05T14:53:49Z</time>
      </trkpt>
      <trkpt lat="46.98871" lon="-0.80962">
        <ele>136</ele>
        <time>2023-11-05T14:58:23Z</time>
      </trkpt>
      <trkpt lat="46.98502" lon="-0.80752">
        <ele>168</ele>
        <time>2023-11-05T15:07:12Z</time>
      </trkpt>
      <trkpt lat="46.98723" lon="-0.80305">
        <ele>166</ele>
        <time>2023-11-05T15:15:34Z</time>
      </trkpt>
      <trkpt lat="46.98969" lon="-0.79691">
        <ele>157</ele>
        <time>2023-11-05T15:26:22Z</time>
      </trkpt>
      <trkpt lat="46.99432" lon="-0.78912">
        <ele>150</ele>
        <time>2023-11-05T15:42:03Z</time>
      </trkpt>
      <trkpt lat="46.99693" lon="-0.78486">
        <ele>137</ele>
        <time>2023-11-05T15:50:44Z</time>
      </trkpt>
      <trkpt lat="47.0017" lon="-0.77945">
        <ele>106</ele>
        <time>2023-11-05T16:04:09Z</time>
      </trkpt>
      <trkpt lat="47.00269" lon="-0.77865">
        <ele>103</ele>
        <time>2023-11-05T16:06:40Z</time>
      </trkpt>
      <trkpt lat="47.0025" lon="-0.77685">
        <ele>106</ele>
        <time>2023-11-05T16:09:25Z</time>
      </trkpt>
      <trkpt lat="47.00376" lon="-0.77409">
        <ele>104</ele>
        <time>2023-11-05T16:14:28Z</time>
      </trkpt>
      <trkpt lat="47.00251" lon="-0.76923">
        <ele>107</ele>
        <time>2023-11-05T16:22:20Z</time>
      </trkpt>
      <trkpt lat="47.00197" lon="-0.76976">
        <ele>108</ele>
        <time>2023-11-05T16:23:47Z</time>
      </trkpt>
      <trkpt lat="47.00273" lon="-0.76878">
        <ele>109</ele>
        <time>2023-11-05T16:26:02Z</time>
      </trkpt>
      <trkpt lat="47.00328" lon="-0.76769">
        <ele>113</ele>
        <time>2023-11-05T16:28:06Z</time>
      </trkpt>
      <trkpt lat="47.00324" lon="-0.76869">
        <ele>112</ele>
        <time>2023-11-05T16:29:37Z</time>
      </trkpt>
      <trkpt lat="47.00362" lon="-0.77019">
        <ele>110</ele>
        <time>2023-11-05T16:32:02Z</time>
      </trkpt>
      <trkpt lat="47.00412" lon="-0.77054">
        <ele>107</ele>
        <time>2023-11-05T16:33:16Z</time>
      </trkpt>
      <trkpt lat="47.00478" lon="-0.77004">
        <ele>110</ele>
        <time>2023-11-05T16:34:55Z</time>
      </trkpt>
      <trkpt lat="47.00489" lon="-0.76966">
        <ele>111</ele>
        <time>2023-11-05T16:35:33Z</time>
      </trkpt>
      <trkpt lat="47.00555" lon="-0.76938">
        <ele>110</ele>
        <time>2023-11-05T16:37:05Z</time>
      </trkpt>
      <trkpt lat="47.00559" lon="-0.77013">
        <ele>109</ele>
        <time>2023-11-05T16:38:13Z</time>
      </trkpt>
      <trkpt lat="47.00461" lon="-0.77137">
        <ele>106</ele>
        <time>2023-11-05T16:41:06Z</time>
      </trkpt>
      <trkpt lat="47.00488" lon="-0.77418">
        <ele>113</ele>
        <time>2023-11-05T16:45:24Z</time>
      </trkpt>
      <trkpt lat="47.00423" lon="-0.77554">
        <ele>106</ele>
        <time>2023-11-05T16:47:55Z</time>
      </trkpt>
      <trkpt lat="47.00461" lon="-0.77897">
        <ele>107</ele>
        <time>2023-11-05T16:53:11Z</time>
      </trkpt>
      <trkpt lat="47.00478" lon="-0.77972">
        <ele>107</ele>
        <time>2023-11-05T16:54:23Z</time>
      </trkpt>
      <trkpt lat="47.00323" lon="-0.78137">
        <ele>105</ele>
        <time>2023-11-05T16:58:39Z</time>
      </trkpt>
      <trkpt lat="47.00318" lon="-0.78146">
        <ele>105</ele>
        <time>2023-11-05T16:58:49Z</time>
      </trkpt>
      <trkpt lat="47.00303" lon="-0.7821">
        <ele>104</ele>
        <time>2023-11-05T16:59:51Z</time>
      </trkpt>
      <trkpt lat="47.00494" lon="-0.78455">
        <ele>104</ele>
        <time>2023-11-05T17:05:30Z</time>
      </trkpt>
      <trkpt lat="47.00554" lon="-0.78509">
        <ele>104</ele>
        <time>2023-11-05T17:07:04Z</time>
      </trkpt>
      <trkpt lat="47.00606" lon="-0.78515">
        <ele>106</ele>
        <time>2023-11-05T17:08:13Z</time>
      </trkpt>
      <trkpt lat="47.00688" lon="-0.78736">
        <ele>104</ele>
        <time>2023-11-05T17:12:02Z</time>
      </trkpt>
      <trkpt lat="47.0076" lon="-0.78785">
        <ele>105</ele>
        <time>2023-11-05T17:13:48Z</time>
      </trkpt>
      <trkpt lat="47.00836" lon="-0.78787">
        <ele>108</ele>
        <time>2023-11-05T17:15:30Z</time>
      </trkpt>
      <trkpt lat="47.00878" lon="-0.78893">
        <ele>111</ele>
        <time>2023-11-05T17:17:21Z</time>
      </trkpt>
      <trkpt lat="47.00867" lon="-0.79111">
        <ele>113</ele>
        <time>2023-11-05T17:20:40Z</time>
      </trkpt>
      <trkpt lat="47.00843" lon="-0.79332">
        <ele>108</ele>
        <time>2023-11-05T17:24:04Z</time>
      </trkpt>
      <trkpt lat="47.00903" lon="-0.79487">
        <ele>104</ele>
        <time>2023-11-05T17:26:46Z</time>
      </trkpt>
      <trkpt lat="47.00973" lon="-0.79499">
        <ele>103</ele>
        <time>2023-11-05T17:28:20Z</time>
      </trkpt>
      <trkpt lat="47.01055" lon="-0.79466">
        <ele>107</ele>
        <time>2023-11-05T17:30:13Z</time>
      </trkpt>
      <trkpt lat="47.01225" lon="-0.79311">
        <ele>110</ele>
        <time>2023-11-05T17:34:41Z</time>
      </trkpt>
      <trkpt lat="47.01077" lon="-0.79551">
        <ele>108</ele>
        <time>2023-11-05T17:39:35Z</time>
      </trkpt>
      <trkpt lat="47.00978" lon="-0.79674">
        <ele>106</ele>
        <time>2023-11-05T17:42:28Z</time>
      </trkpt>
      <trkpt lat="47.00998" lon="-0.79856">
        <ele>105</ele>
        <time>2023-11-05T17:45:16Z</time>
      </trkpt>
      <trkpt lat="47.01115" lon="-0.79981">
        <ele>109</ele>
        <time>2023-11-05T17:48:29Z</time>
      </trkpt>
      <trkpt lat="47.01121" lon="-0.80075">
        <ele>106</ele>
        <time>2023-11-05T17:49:55Z</time>
      </trkpt>
      <trkpt lat="47.01278" lon="-0.80227">
        <ele>110</ele>
        <time>2023-11-05T17:54:06Z</time>
      </trkpt>
      <trkpt lat="47.01266" lon="-0.80294">
        <ele>111</ele>
        <time>2023-11-05T17:55:09Z</time>
      </trkpt>
      <trkpt lat="47.01123" lon="-0.80251">
        <ele>105</ele>
        <time>2023-11-05T17:58:24Z</time>
      </trkpt>
      <trkpt lat="47.01089" lon="-0.80408">
        <ele>106</ele>
        <time>2023-11-05T18:00:54Z</time>
      </trkpt>
      <trkpt lat="47.01127" lon="-0.80476">
        <ele>107</ele>
        <time>2023-11-05T18:02:14Z</time>
      </trkpt>
      <trkpt lat="47.01077" lon="-0.80667">
        <ele>104</ele>
        <time>2023-11-05T18:05:20Z</time>
      </trkpt>
      <trkpt lat="47.01167" lon="-0.80877">
        <ele>107</ele>
        <time>2023-11-05T18:09:06Z</time>
      </trkpt>
      <trkpt lat="47.01194" lon="-0.81048">
        <ele>106</ele>
        <time>2023-11-05T18:11:45Z</time>
      </trkpt>
      <trkpt lat="47.01489" lon="-0.80903">
        <ele>115</ele>
        <time>2023-11-05T18:18:40Z</time>
      </trkpt>
      <trkpt lat="47.01558" lon="-0.81059">
        <ele>113</ele>
        <time>2023-11-05T18:21:30Z</time>
      </trkpt>
      <trkpt lat="47.01647" lon="-0.81163">
        <ele>117</ele>
        <time>2023-11-05T18:24:01Z</time>
      </trkpt>
      <trkpt lat="47.0174" lon="-0.81098">
        <ele>121</ele>
        <time>2023-11-05T18:26:19Z</time>
      </trkpt>
      <trkpt lat="47.01905" lon="-0.81189">
        <ele>127</ele>
        <time>2023-11-05T18:30:14Z</time>
      </trkpt>
      <trkpt lat="47.02075" lon="-0.80532">
        <ele>133</ele>
        <time>2023-11-05T18:40:53Z</time>
      </trkpt>
      <trkpt lat="47.02161" lon="-0.80005">
        <ele>127</ele>
        <time>2023-11-05T18:49:06Z</time>
      </trkpt>
      <trkpt lat="47.021" lon="-0.79839">
        <ele>126</ele>
        <time>2023-11-05T18:51:58Z</time>
      </trkpt>
      <trkpt lat="47.01566" lon="-0.79904">
        <ele>127</ele>
        <time>2023-11-05T19:03:53Z</time>
      </trkpt>
      <trkpt lat="47.01453" lon="-0.79532">
        <ele>124</ele>
        <time>2023-11-05T19:10:04Z</time>
      </trkpt>
      <trkpt lat="47.0131" lon="-0.79363">
        <ele>113</ele>
        <time>2023-11-05T19:14:09Z</time>
      </trkpt>
      <trkpt lat="47.0128" lon="-0.79186">
        <ele>111</ele>
        <time>2023-11-05T19:16:55Z</time>
      </trkpt>
      <trkpt lat="47.01209" lon="-0.78908">
        <ele>119</ele>
        <time>2023-11-05T19:21:25Z</time>
      </trkpt>
      <trkpt lat="47.01123" lon="-0.7867">
        <ele>126</ele>
        <time>2023-11-05T19:25:30Z</time>
      </trkpt>
      <trkpt lat="47.00891" lon="-0.78731">
        <ele>115</ele>
        <time>2023-11-05T19:30:44Z</time>
      </trkpt>
      <trkpt lat="47.00823" lon="-0.78586">
        <ele>117</ele>
        <time>2023-11-05T19:33:25Z</time>
      </trkpt>
      <trkpt lat="47.0076" lon="-0.78526">
        <ele>114</ele>
        <time>2023-11-05T19:35:05Z</time>
      </trkpt>
      <trkpt lat="47.0056" lon="-0.78501">
        <ele>104</ele>
        <time>2023-11-05T19:39:33Z</time>
      </trkpt>
      <trkpt lat="47.00303" lon="-0.78219">
        <ele>104</ele>
        <time>2023-11-05T19:46:41Z</time>
      </trkpt>
      <trkpt lat="47.00339" lon="-0.78119">
        <ele>105</ele>
        <time>2023-11-05T19:48:24Z</time>
      </trkpt>
      <trkpt lat="47.00475" lon="-0.77976">
        <ele>107</ele>
        <time>2023-11-05T19:52:07Z</time>
      </trkpt>
      <trkpt lat="47.00417" lon="-0.77579">
        <ele>105</ele>
        <time>2023-11-05T19:58:17Z</time>
      </trkpt>
      <trkpt lat="47.00497" lon="-0.77405">
        <ele>114</ele>
        <time>2023-11-05T20:01:28Z</time>
      </trkpt>
      <trkpt lat="47.00473" lon="-0.77146">
        <ele>107</ele>
        <time>2023-11-05T20:05:26Z</time>
      </trkpt>
      <trkpt lat="47.00561" lon="-0.77027">
        <ele>109</ele>
        <time>2023-11-05T20:08:05Z</time>
      </trkpt>
      <trkpt lat="47.00555" lon="-0.76931">
        <ele>110</ele>
        <time>2023-11-05T20:09:33Z</time>
      </trkpt>
      <trkpt lat="47.00424" lon="-0.77054">
        <ele>107</ele>
        <time>2023-11-05T20:13:01Z</time>
      </trkpt>
      <trkpt lat="47.00354" lon="-0.77012">
        <ele>111</ele>
        <time>2023-11-05T20:14:41Z</time>
      </trkpt>
      <trkpt lat="47.00319" lon="-0.76857">
        <ele>112</ele>
        <time>2023-11-05T20:17:10Z</time>
      </trkpt>
      <trkpt lat="47.00333" lon="-0.76758">
        <ele>113</ele>
        <time>2023-11-05T20:18:42Z</time>
      </trkpt>
      <trkpt lat="47.00193" lon="-0.76991">
        <ele>108</ele>
        <time>2023-11-05T20:23:25Z</time>
      </trkpt>
    </trkseg>
  </trk>
</gpx>